createdAt,value
2024-04-09T00:00:25.000Z,4.7
2024-04-09T00:03:58.000Z,5.4
2024-04-09T00:07:31.000Z,4.6
2024-04-09T00:11:04.000Z,4.9
2024-04-09T00:13:50.000Z,5.4
2024-04-09T00:17:22.000Z,4.8
2024-04-09T00:20:56.000Z,5
2024-04-09T00:24:28.000Z,5.1
2024-04-09T00:28:01.000Z,4.8
2024-04-09T00:31:34.000Z,5.8
2024-04-09T00:35:07.000Z,5.1
2024-04-09T00:38:40.000Z,5.3
2024-04-09T00:42:12.000Z,5
2024-04-09T00:45:46.000Z,5.2
2024-04-09T00:49:18.000Z,5.3
2024-04-09T00:52:04.000Z,5
2024-04-09T00:55:37.000Z,4.8
2024-04-09T00:59:10.000Z,4.9
2024-04-09T01:02:42.000Z,5.1
2024-04-09T01:06:16.000Z,4.5
2024-04-09T01:09:49.000Z,5.1
2024-04-09T01:13:22.000Z,4.2
2024-04-09T01:16:55.000Z,5.1
2024-04-09T01:20:28.000Z,4.1
2024-04-09T01:24:00.000Z,4.6
2024-04-09T01:27:34.000Z,4.5
2024-04-09T01:30:19.000Z,4.5
2024-04-09T01:33:52.000Z,4.8
2024-04-09T01:37:25.000Z,4.2
2024-04-09T01:40:58.000Z,4.9
2024-04-09T01:44:31.000Z,4.3
2024-04-09T01:48:04.000Z,5.3
2024-04-09T01:51:37.000Z,5.2
2024-04-09T01:55:10.000Z,4.8
2024-04-09T01:58:43.000Z,4.5
2024-04-09T02:02:16.000Z,4.6
2024-04-09T02:05:49.000Z,4.5
2024-04-09T02:08:34.000Z,4.9
2024-04-09T02:12:07.000Z,5
2024-04-09T02:15:40.000Z,5
2024-04-09T02:19:13.000Z,5.1
2024-04-09T02:22:46.000Z,5.3
2024-04-09T02:26:18.000Z,4.8
2024-04-09T02:29:51.000Z,5.1
2024-04-09T02:33:24.000Z,5.1
2024-04-09T02:36:57.000Z,4.4
2024-04-09T02:40:30.000Z,4.7
2024-04-09T02:44:03.000Z,5.4
2024-04-09T02:46:48.000Z,5
2024-04-09T02:50:21.000Z,5.7
2024-04-09T02:53:54.000Z,5.1
2024-04-09T02:57:27.000Z,5.1
2024-04-09T03:01:00.000Z,4.5
2024-04-09T03:04:33.000Z,5.7
2024-04-09T03:08:06.000Z,4.4
2024-04-09T03:11:39.000Z,5.8
2024-04-09T03:15:12.000Z,5.5
2024-04-09T03:18:45.000Z,5.9
2024-04-09T03:22:17.000Z,5.8
2024-04-09T03:25:02.000Z,4.6
2024-04-09T03:28:35.000Z,5.4
2024-04-09T03:32:08.000Z,5.4
2024-04-09T03:35:41.000Z,4.9
2024-04-09T03:39:14.000Z,5.4
2024-04-09T03:42:46.000Z,5.1
2024-04-09T03:46:19.000Z,4.9
2024-04-09T03:49:52.000Z,5.6
2024-04-09T03:53:25.000Z,4.7
2024-04-09T03:56:58.000Z,5.4
2024-04-09T04:00:31.000Z,4.9
2024-04-09T04:03:16.000Z,5.7
2024-04-09T04:06:49.000Z,4.8
2024-04-09T04:10:22.000Z,4.8
2024-04-09T04:13:55.000Z,5
2024-04-09T04:17:27.000Z,5.6
2024-04-09T04:21:00.000Z,5.5
2024-04-09T04:24:33.000Z,5.1
2024-04-09T04:28:06.000Z,5.4
2024-04-09T04:31:39.000Z,4.9
2024-04-09T04:35:12.000Z,5.5
2024-04-09T04:38:45.000Z,5.7
2024-04-09T04:41:31.000Z,5.8
2024-04-09T04:45:03.000Z,5.5
2024-04-09T04:48:36.000Z,5.7
2024-04-09T04:52:09.000Z,6.6
2024-04-09T04:55:42.000Z,5.5
2024-04-09T04:59:15.000Z,5.7
2024-04-09T05:02:48.000Z,5.1
2024-04-09T05:06:21.000Z,5.2
2024-04-09T05:09:54.000Z,5
2024-04-09T05:13:28.000Z,5.2
2024-04-09T05:17:01.000Z,5.5
2024-04-09T05:19:46.000Z,6.1
2024-04-09T05:23:19.000Z,5
2024-04-09T05:26:51.000Z,6.3
2024-04-09T05:30:24.000Z,6.6
2024-04-09T05:33:57.000Z,10.1
2024-04-09T05:37:30.000Z,9.9
2024-04-09T05:41:02.000Z,7.3
2024-04-09T05:44:35.000Z,7.4
2024-04-09T05:48:08.000Z,8.6
2024-04-09T05:51:41.000Z,8
2024-04-09T05:55:14.000Z,6.8
2024-04-09T05:58:00.000Z,6.1
2024-04-09T06:01:33.000Z,6
2024-04-09T06:05:06.000Z,5.3
2024-04-09T06:08:39.000Z,5
2024-04-09T06:12:12.000Z,4.8
2024-04-09T06:15:45.000Z,4.8
2024-04-09T06:19:18.000Z,4.5
2024-04-09T06:22:50.000Z,4.8
2024-04-09T06:26:23.000Z,5.5
2024-04-09T06:29:56.000Z,4.8
2024-04-09T06:33:29.000Z,4.7
2024-04-09T06:36:15.000Z,4.8
2024-04-09T06:39:49.000Z,4.8
2024-04-09T06:43:21.000Z,4.6
2024-04-09T06:46:54.000Z,4.7
2024-04-09T06:50:32.000Z,4.7
2024-04-09T06:54:05.000Z,4.3
2024-04-09T06:57:38.000Z,3.9
2024-04-09T07:01:11.000Z,3.7
2024-04-09T07:04:44.000Z,3.4
2024-04-09T07:08:16.000Z,3.6
2024-04-09T07:11:49.000Z,3.9
2024-04-09T07:14:34.000Z,4.4
2024-04-09T07:18:07.000Z,4
2024-04-09T07:21:40.000Z,3.2
2024-04-09T07:25:12.000Z,2.8
2024-04-09T07:28:45.000Z,3.6
2024-04-09T07:32:18.000Z,4
2024-04-09T07:35:52.000Z,3.8
2024-04-09T07:39:24.000Z,2.9
2024-04-09T07:42:58.000Z,2.6
2024-04-09T07:46:31.000Z,2.2
2024-04-09T07:50:04.000Z,2.9
2024-04-09T07:52:49.000Z,2.2
2024-04-09T07:56:22.000Z,1.9
2024-04-09T07:59:55.000Z,2
2024-04-09T08:03:27.000Z,2.6
2024-04-09T08:07:01.000Z,2.5
2024-04-09T08:10:38.000Z,1.5
2024-04-09T08:14:11.000Z,1.7
2024-04-09T08:17:44.000Z,1.7
2024-04-09T08:21:17.000Z,1.7
2024-04-09T08:24:50.000Z,2.4
2024-04-09T08:28:23.000Z,1.4
2024-04-09T08:31:08.000Z,1.6
2024-04-09T08:34:41.000Z,2.3
2024-04-09T08:38:14.000Z,2.4
2024-04-09T08:41:47.000Z,2.1
2024-04-09T08:45:20.000Z,2.5
2024-04-09T08:48:53.000Z,3.3
2024-04-09T08:52:27.000Z,2.7
2024-04-09T08:56:00.000Z,2
2024-04-09T08:59:33.000Z,2.6
2024-04-09T09:03:06.000Z,1.9
2024-04-09T09:06:39.000Z,1.8
2024-04-09T09:09:24.000Z,2.1
2024-04-09T09:12:57.000Z,2
2024-04-09T09:16:30.000Z,2.4
2024-04-09T09:20:02.000Z,2.1
2024-04-09T09:23:35.000Z,1.7
2024-04-09T09:27:08.000Z,1.4
2024-04-09T09:30:41.000Z,1.2
2024-04-09T09:34:14.000Z,1.1
2024-04-09T09:37:47.000Z,1
2024-04-09T09:41:23.000Z,0.9
2024-04-09T09:44:55.000Z,1
2024-04-09T09:47:41.000Z,1.2
2024-04-09T09:51:15.000Z,1
2024-04-09T09:54:48.000Z,0.8
2024-04-09T09:58:24.000Z,0.7
2024-04-09T10:01:57.000Z,0.6
2024-04-09T10:05:30.000Z,0.8
2024-04-09T10:09:03.000Z,0.7
2024-04-09T10:12:36.000Z,0.8
2024-04-09T10:16:09.000Z,0.7
2024-04-09T10:19:47.000Z,0.8
2024-04-09T10:23:20.000Z,0.4
2024-04-09T10:26:05.000Z,0.5
2024-04-09T10:29:38.000Z,0.6
2024-04-09T10:33:43.000Z,0.5
2024-04-09T10:37:16.000Z,0.6
2024-04-09T10:40:48.000Z,0.4
2024-04-09T10:44:22.000Z,0.3
2024-04-09T10:48:08.000Z,0.4
2024-04-09T10:51:41.000Z,0.3
2024-04-09T10:55:14.000Z,0.4
2024-04-09T10:58:46.000Z,0.3
2024-04-09T11:02:20.000Z,0.3
2024-04-09T11:05:05.000Z,0.4
2024-04-09T11:08:38.000Z,0.5
2024-04-09T11:12:11.000Z,0.6
2024-04-09T11:15:44.000Z,0.4
2024-04-09T11:19:17.000Z,0.5
2024-04-09T11:22:50.000Z,0.5
2024-04-09T11:26:22.000Z,0.6
2024-04-09T11:29:55.000Z,0.6
2024-04-09T11:33:28.000Z,0.5
2024-04-09T11:37:01.000Z,0.6
2024-04-09T11:40:34.000Z,0.4
2024-04-09T11:43:19.000Z,0.8
2024-04-09T11:46:52.000Z,0.5
2024-04-09T11:50:25.000Z,0.6
2024-04-09T11:53:58.000Z,0.6
2024-04-09T11:57:31.000Z,0.4
2024-04-09T12:01:04.000Z,0.6
2024-04-09T12:04:37.000Z,0.5
2024-04-09T12:08:11.000Z,0.6
2024-04-09T12:11:44.000Z,0.5
2024-04-09T12:15:17.000Z,0.5
2024-04-09T12:18:50.000Z,0.6
2024-04-09T12:21:36.000Z,0.6
2024-04-09T12:25:08.000Z,0.4
2024-04-09T12:28:41.000Z,0.6
2024-04-09T12:32:15.000Z,0.7
2024-04-09T12:35:48.000Z,0.7
2024-04-09T12:39:20.000Z,0.7
2024-04-09T12:42:53.000Z,2.3
2024-04-09T12:46:25.000Z,0.5
2024-04-09T12:49:58.000Z,1.5
2024-04-09T12:53:32.000Z,0.6
2024-04-09T12:57:04.000Z,0.6
2024-04-09T12:59:50.000Z,0.7
2024-04-09T13:04:00.000Z,0.5
2024-04-09T13:07:39.000Z,0.6
2024-04-09T13:11:12.000Z,0.7
2024-04-09T13:18:46.000Z,0.7
2024-04-09T13:22:19.000Z,0.9
2024-04-09T13:25:52.000Z,0.6
2024-04-09T13:29:24.000Z,0.8
2024-04-09T13:32:57.000Z,0.8
2024-04-09T13:36:30.000Z,0.4
2024-04-09T13:39:15.000Z,0.7
2024-04-09T13:42:49.000Z,0.6
2024-04-09T13:46:21.000Z,0.7
2024-04-09T13:49:54.000Z,0.7
2024-04-09T13:53:27.000Z,0.8
2024-04-09T13:57:00.000Z,1
2024-04-09T14:00:34.000Z,0.8
2024-04-09T14:04:07.000Z,0.7
2024-04-09T14:07:40.000Z,1
2024-04-09T14:11:12.000Z,1.1
2024-04-09T14:14:46.000Z,1.1
2024-04-09T14:17:32.000Z,1.5
2024-04-09T14:21:05.000Z,1.4
2024-04-09T14:24:38.000Z,1
2024-04-09T14:28:10.000Z,1.4
2024-04-09T14:31:43.000Z,1.4
2024-04-09T14:35:16.000Z,1.3
2024-04-09T14:38:49.000Z,1.1
2024-04-09T14:42:22.000Z,1.5
2024-04-09T14:45:58.000Z,1.2
2024-04-09T14:49:32.000Z,1.6
2024-04-09T14:53:05.000Z,1.5
2024-04-09T14:55:50.000Z,1.7
2024-04-09T14:59:23.000Z,1.7
2024-04-09T15:02:56.000Z,1.8
2024-04-09T15:06:28.000Z,1.8
2024-04-09T15:10:02.000Z,2.4
2024-04-09T15:13:35.000Z,1.9
2024-04-09T15:17:08.000Z,1.6
2024-04-09T15:20:41.000Z,1.7
2024-04-09T15:24:14.000Z,1.9
2024-04-09T15:27:46.000Z,1.9
2024-04-09T15:31:19.000Z,1.8
2024-04-09T15:34:04.000Z,1.9
2024-04-09T15:37:37.000Z,1.9
2024-04-09T15:41:11.000Z,2.1
2024-04-09T15:44:43.000Z,2
2024-04-09T15:48:16.000Z,2.1
2024-04-09T15:51:49.000Z,1.8
2024-04-09T15:55:23.000Z,1.9
2024-04-09T15:58:56.000Z,1.9
2024-04-09T16:02:28.000Z,1.7
2024-04-09T16:06:02.000Z,1.8
2024-04-09T16:09:35.000Z,1.8
2024-04-09T16:12:20.000Z,1.9
2024-04-09T16:15:54.000Z,1.7
2024-04-09T16:19:26.000Z,1.8
2024-04-09T16:22:59.000Z,1.8
2024-04-09T16:26:32.000Z,1.7
2024-04-09T16:30:04.000Z,1.7
2024-04-09T16:33:37.000Z,1.8
2024-04-09T16:37:10.000Z,2
2024-04-09T16:40:43.000Z,2.5
2024-04-09T16:44:16.000Z,2
2024-04-09T16:47:48.000Z,1.9
2024-04-09T16:50:34.000Z,2.2
2024-04-09T16:54:08.000Z,2.2
2024-04-09T16:57:40.000Z,2
2024-04-09T17:01:13.000Z,2
2024-04-09T17:04:46.000Z,1.9
2024-04-09T17:08:19.000Z,1.7
2024-04-09T17:11:52.000Z,1.6
2024-04-09T17:15:25.000Z,2
2024-04-09T17:18:58.000Z,1.9
2024-04-09T17:22:31.000Z,2.2
2024-04-09T17:26:04.000Z,1.4
2024-04-09T17:28:49.000Z,2
2024-04-09T17:32:22.000Z,1.6
2024-04-09T17:35:56.000Z,2
2024-04-09T17:39:28.000Z,1.8
2024-04-09T17:43:01.000Z,1.6
2024-04-09T17:46:34.000Z,1.6
2024-04-09T17:50:07.000Z,2
2024-04-09T17:53:40.000Z,1.8
2024-04-09T17:57:12.000Z,1.7
2024-04-09T18:00:45.000Z,1.9
2024-04-09T18:04:18.000Z,1.9
2024-04-09T18:07:03.000Z,1.6
2024-04-09T18:10:36.000Z,1.6
2024-04-09T18:14:09.000Z,1.6
2024-04-09T18:17:42.000Z,1.8
2024-04-09T18:21:15.000Z,1.9
2024-04-09T18:24:48.000Z,1.6
2024-04-09T18:28:20.000Z,1.8
2024-04-09T18:31:53.000Z,1.8
2024-04-09T18:35:26.000Z,2
2024-04-09T18:39:00.000Z,1.8
2024-04-09T18:42:33.000Z,1.9
2024-04-09T18:45:18.000Z,2.2
2024-04-09T18:48:50.000Z,1.9
2024-04-09T18:52:24.000Z,2.1
2024-04-09T18:55:57.000Z,3.3
2024-04-09T18:59:30.000Z,4.6
2024-04-09T19:03:03.000Z,3
2024-04-09T19:06:36.000Z,2.5
2024-04-09T19:10:09.000Z,2.5
2024-04-09T19:13:41.000Z,1.9
2024-04-09T19:17:14.000Z,2.4
2024-04-09T19:20:47.000Z,2.9
2024-04-09T19:23:32.000Z,2.6
2024-04-09T19:27:05.000Z,2.2
2024-04-09T19:30:38.000Z,2.2
2024-04-09T19:34:11.000Z,2.5
2024-04-09T19:37:44.000Z,2.4
2024-04-09T19:41:17.000Z,2.6
2024-04-09T19:45:11.000Z,2.7
2024-04-09T19:48:49.000Z,2.1
2024-04-09T19:52:22.000Z,2.5
2024-04-09T19:55:56.000Z,1.8
2024-04-09T19:59:29.000Z,2.1
2024-04-09T20:02:14.000Z,2.3
2024-04-09T20:05:47.000Z,3
2024-04-09T20:09:20.000Z,2.1
2024-04-09T20:12:53.000Z,2.7
2024-04-09T20:16:25.000Z,2
2024-04-09T20:19:58.000Z,2.1
2024-04-09T20:23:31.000Z,1.9
2024-04-09T20:27:04.000Z,2.1
2024-04-09T20:30:37.000Z,3.5
2024-04-09T20:34:10.000Z,2
2024-04-09T20:37:42.000Z,2.3
2024-04-09T20:40:28.000Z,2.9
2024-04-09T20:44:00.000Z,2.2
2024-04-09T20:47:34.000Z,2.5
2024-04-09T20:51:07.000Z,2.2
2024-04-09T20:54:40.000Z,4.6
2024-04-09T20:58:13.000Z,2.6
2024-04-09T21:01:46.000Z,2.3
2024-04-09T21:05:18.000Z,2.4
2024-04-09T21:08:51.000Z,2.7
2024-04-09T21:12:24.000Z,2.2
2024-04-09T21:15:56.000Z,2.3
2024-04-09T21:18:42.000Z,2.5
2024-04-09T21:22:16.000Z,2
2024-04-09T21:25:48.000Z,2
2024-04-09T21:29:21.000Z,2.4
2024-04-09T21:32:54.000Z,2.4
2024-04-09T21:36:27.000Z,2.1
2024-04-09T21:40:00.000Z,2.6
2024-04-09T21:43:33.000Z,2.8
2024-04-09T21:47:06.000Z,2.3
2024-04-09T21:50:40.000Z,2.9
2024-04-09T21:54:14.000Z,2.7
2024-04-09T21:57:00.000Z,2.7
2024-04-09T22:00:32.000Z,2.6
2024-04-09T22:04:06.000Z,2.6
2024-04-09T22:07:38.000Z,3
2024-04-09T22:11:11.000Z,2.6
2024-04-09T22:14:44.000Z,2.7
2024-04-09T22:18:17.000Z,2.8
2024-04-09T22:21:50.000Z,3
2024-04-09T22:25:23.000Z,2.8
2024-04-09T22:28:55.000Z,2.4
2024-04-09T22:32:28.000Z,2.4
2024-04-09T22:35:13.000Z,2.2
2024-04-09T22:38:46.000Z,2.3
2024-04-09T22:42:19.000Z,2.3
2024-04-09T22:45:52.000Z,2.8
2024-04-09T22:49:26.000Z,2.1
2024-04-09T22:52:59.000Z,2
2024-04-09T22:56:32.000Z,1.9
2024-04-09T23:00:06.000Z,2.1
2024-04-09T23:03:38.000Z,2.2
2024-04-09T23:07:12.000Z,2.3
2024-04-09T23:10:44.000Z,1.8
2024-04-09T23:13:30.000Z,2.2
2024-04-09T23:17:03.000Z,2.5
2024-04-09T23:20:36.000Z,2.5
2024-04-09T23:24:08.000Z,2.2
2024-04-09T23:27:42.000Z,2.5
2024-04-09T23:31:15.000Z,2.1
2024-04-09T23:34:48.000Z,1.9
2024-04-09T23:38:20.000Z,2
2024-04-09T23:41:53.000Z,2.1
2024-04-09T23:45:27.000Z,2.4
2024-04-09T23:49:00.000Z,1.8
2024-04-09T23:51:45.000Z,1.7
2024-04-09T23:55:18.000Z,1.8
2024-04-09T23:58:51.000Z,1.6
